sensor_id;sensor_type;location;lat;lon;timestamp;P1;durP1;ratioP1;P2;durP2;ratioP2
19891;SDS011;10108;50.142;8.724;2023-10-31T00:01:53;12.70;;;10.23;;
19891;SDS011;10108;50.142;8.724;2023-10-31T00:04:20;12.13;;;10.20;;
19891;SDS011;10108;50.142;8.724;2023-10-31T00:06:47;11.40;;;9.80;;
19891;SDS011;10108;50.142;8.724;2023-10-31T00:09:13;10.32;;;9.32;;
19891;SDS011;10108;50.142;8.724;2023-10-31T00:11:41;11.15;;;9.18;;
19891;SDS011;10108;50.142;8.724;2023-10-31T00:14:09;10.20;;;9.20;;
19891;SDS011;10108;50.142;8.724;2023-10-31T00:16:35;10.38;;;9.27;;
19891;SDS011;10108;50.142;8.724;2023-10-31T00:19:01;10.73;;;8.82;;
19891;SDS011;10108;50.142;8.724;2023-10-31T00:21:27;9.57;;;8.52;;
19891;SDS011;10108;50.142;8.724;2023-10-31T00:23:54;9.77;;;8.77;;
19891;SDS011;10108;50.142;8.724;2023-10-31T00:26:20;10.98;;;9.20;;
19891;SDS011;10108;50.142;8.724;2023-10-31T00:28:52;10.15;;;9.02;;
19891;SDS011;10108;50.142;8.724;2023-10-31T00:31:18;9.30;;;8.40;;
19891;SDS011;10108;50.142;8.724;2023-10-31T00:33:44;9.50;;;8.60;;
19891;SDS011;10108;50.142;8.724;2023-10-31T00:36:10;9.30;;;8.30;;
19891;SDS011;10108;50.142;8.724;2023-10-31T00:38:37;9.70;;;7.93;;
19891;SDS011;10108;50.142;8.724;2023-10-31T00:41:03;10.23;;;8.23;;
19891;SDS011;10108;50.142;8.724;2023-10-31T00:43:29;9.20;;;8.20;;
19891;SDS011;10108;50.142;8.724;2023-10-31T00:45:55;9.38;;;8.38;;
19891;SDS011;10108;50.142;8.724;2023-10-31T00:48:21;10.02;;;8.45;;
19891;SDS011;10108;50.142;8.724;2023-10-31T00:50:47;10.25;;;8.32;;
19891;SDS011;10108;50.142;8.724;2023-10-31T00:53:13;9.02;;;8.13;;
19891;SDS011;10108;50.142;8.724;2023-10-31T00:55:40;10.68;;;8.40;;
19891;SDS011;10108;50.142;8.724;2023-10-31T00:58:06;12.02;;;9.18;;
19891;SDS011;10108;50.142;8.724;2023-10-31T01:00:33;9.52;;;8.10;;
19891;SDS011;10108;50.142;8.724;2023-10-31T01:02:59;9.15;;;7.78;;
19891;SDS011;10108;50.142;8.724;2023-10-31T01:05:26;8.50;;;7.70;;
19891;SDS011;10108;50.142;8.724;2023-10-31T01:07:55;8.43;;;7.63;;
19891;SDS011;10108;50.142;8.724;2023-10-31T01:10:21;8.40;;;7.60;;
19891;SDS011;10108;50.142;8.724;2023-10-31T01:12:47;8.60;;;7.70;;
19891;SDS011;10108;50.142;8.724;2023-10-31T01:15:14;9.68;;;7.80;;
19891;SDS011;10108;50.142;8.724;2023-10-31T01:17:40;10.20;;;7.45;;
19891;SDS011;10108;50.142;8.724;2023-10-31T01:20:06;7.82;;;7.10;;
19891;SDS011;10108;50.142;8.724;2023-10-31T01:22:33;12.55;;;7.30;;
19891;SDS011;10108;50.142;8.724;2023-10-31T01:24:59;7.68;;;6.97;;
19891;SDS011;10108;50.142;8.724;2023-10-31T01:27:25;8.13;;;7.10;;
19891;SDS011;10108;50.142;8.724;2023-10-31T01:29:51;7.80;;;7.07;;
19891;SDS011;10108;50.142;8.724;2023-10-31T01:32:17;8.88;;;7.03;;
19891;SDS011;10108;50.142;8.724;2023-10-31T01:34:43;8.02;;;7.13;;
19891;SDS011;10108;50.142;8.724;2023-10-31T01:37:10;8.85;;;7.00;;
19891;SDS011;10108;50.142;8.724;2023-10-31T01:39:36;8.30;;;6.90;;
19891;SDS011;10108;50.142;8.724;2023-10-31T01:42:02;8.98;;;6.88;;
19891;SDS011;10108;50.142;8.724;2023-10-31T01:44:28;8.68;;;7.35;;
19891;SDS011;10108;50.142;8.724;2023-10-31T01:46:54;8.60;;;6.97;;
19891;SDS011;10108;50.142;8.724;2023-10-31T01:49:21;7.60;;;6.88;;
19891;SDS011;10108;50.142;8.724;2023-10-31T01:51:47;9.15;;;6.60;;
19891;SDS011;10108;50.142;8.724;2023-10-31T01:54:14;8.35;;;7.28;;
19891;SDS011;10108;50.142;8.724;2023-10-31T01:56:40;8.93;;;6.80;;
19891;SDS011;10108;50.142;8.724;2023-10-31T01:59:08;7.30;;;6.60;;
19891;SDS011;10108;50.142;8.724;2023-10-31T02:01:37;7.53;;;6.22;;
19891;SDS011;10108;50.142;8.724;2023-10-31T02:04:05;7.00;;;6.30;;
19891;SDS011;10108;50.142;8.724;2023-10-31T02:06:31;8.10;;;6.15;;
19891;SDS011;10108;50.142;8.724;2023-10-31T02:08:57;6.93;;;6.03;;
19891;SDS011;10108;50.142;8.724;2023-10-31T02:11:24;7.10;;;5.95;;
19891;SDS011;10108;50.142;8.724;2023-10-31T02:13:50;6.70;;;6.00;;
19891;SDS011;10108;50.142;8.724;2023-10-31T02:16:16;6.30;;;5.70;;
19891;SDS011;10108;50.142;8.724;2023-10-31T02:18:42;7.13;;;5.50;;
19891;SDS011;10108;50.142;8.724;2023-10-31T02:21:08;8.52;;;5.90;;
19891;SDS011;10108;50.142;8.724;2023-10-31T02:23:34;7.20;;;5.38;;
19891;SDS011;10108;50.142;8.724;2023-10-31T02:26:00;9.95;;;5.63;;
19891;SDS011;10108;50.142;8.724;2023-10-31T02:28:29;5.90;;;5.30;;
19891;SDS011;10108;50.142;8.724;2023-10-31T02:30:55;6.45;;;5.70;;
19891;SDS011;10108;50.142;8.724;2023-10-31T02:33:21;6.13;;;5.13;;
19891;SDS011;10108;50.142;8.724;2023-10-31T02:35:47;5.50;;;5.00;;
19891;SDS011;10108;50.142;8.724;2023-10-31T02:38:14;6.80;;;5.20;;
19891;SDS011;10108;50.142;8.724;2023-10-31T02:40:40;6.50;;;5.22;;
19891;SDS011;10108;50.142;8.724;2023-10-31T02:43:06;5.55;;;5.05;;
19891;SDS011;10108;50.142;8.724;2023-10-31T02:45:32;5.50;;;5.00;;
19891;SDS011;10108;50.142;8.724;2023-10-31T02:47:59;8.15;;;5.07;;
19891;SDS011;10108;50.142;8.724;2023-10-31T02:50:25;5.40;;;4.88;;
19891;SDS011;10108;50.142;8.724;2023-10-31T02:52:51;5.30;;;4.80;;
19891;SDS011;10108;50.142;8.724;2023-10-31T02:55:18;7.38;;;4.85;;
19891;SDS011;10108;50.142;8.724;2023-10-31T02:57:44;5.43;;;4.93;;
19891;SDS011;10108;50.142;8.724;2023-10-31T03:00:10;8.15;;;5.10;;
19891;SDS011;10108;50.142;8.724;2023-10-31T03:02:36;5.57;;;4.90;;
19891;SDS011;10108;50.142;8.724;2023-10-31T03:05:02;6.40;;;5.00;;
19891;SDS011;10108;50.142;8.724;2023-10-31T03:07:29;5.90;;;4.88;;
19891;SDS011;10108;50.142;8.724;2023-10-31T03:09:55;5.63;;;5.07;;
19891;SDS011;10108;50.142;8.724;2023-10-31T03:12:21;6.60;;;4.90;;
19891;SDS011;10108;50.142;8.724;2023-10-31T03:14:47;6.75;;;4.97;;
19891;SDS011;10108;50.142;8.724;2023-10-31T03:17:13;5.38;;;4.65;;
19891;SDS011;10108;50.142;8.724;2023-10-31T03:19:39;5.70;;;4.75;;
19891;SDS011;10108;50.142;8.724;2023-10-31T03:22:05;6.38;;;4.68;;
19891;SDS011;10108;50.142;8.724;2023-10-31T03:24:31;6.68;;;4.80;;
19891;SDS011;10108;50.142;8.724;2023-10-31T03:26:58;9.25;;;5.00;;
19891;SDS011;10108;50.142;8.724;2023-10-31T03:29:24;5.20;;;4.70;;
19891;SDS011;10108;50.142;8.724;2023-10-31T03:31:51;6.63;;;4.80;;
19891;SDS011;10108;50.142;8.724;2023-10-31T03:34:17;5.90;;;4.80;;
19891;SDS011;10108;50.142;8.724;2023-10-31T03:36:43;7.25;;;4.80;;
19891;SDS011;10108;50.142;8.724;2023-10-31T03:39:09;6.70;;;4.60;;
19891;SDS011;10108;50.142;8.724;2023-10-31T03:41:35;6.75;;;4.97;;
19891;SDS011;10108;50.142;8.724;2023-10-31T03:44:01;7.32;;;4.88;;
19891;SDS011;10108;50.142;8.724;2023-10-31T03:46:27;5.22;;;4.35;;
19891;SDS011;10108;50.142;8.724;2023-10-31T03:48:55;6.57;;;4.70;;
19891;SDS011;10108;50.142;8.724;2023-10-31T03:51:21;5.00;;;4.50;;
19891;SDS011;10108;50.142;8.724;2023-10-31T03:53:47;8.50;;;4.70;;
19891;SDS011;10108;50.142;8.724;2023-10-31T03:56:13;5.15;;;4.40;;
19891;SDS011;10108;50.142;8.724;2023-10-31T03:58:40;4.97;;;4.28;;
19891;SDS011;10108;50.142;8.724;2023-10-31T04:01:08;4.75;;;4.22;;
19891;SDS011;10108;50.142;8.724;2023-10-31T04:03:34;4.45;;;4.05;;
19891;SDS011;10108;50.142;8.724;2023-10-31T04:06:00;8.10;;;4.30;;
19891;SDS011;10108;50.142;8.724;2023-10-31T04:08:26;6.75;;;4.20;;
19891;SDS011;10108;50.142;8.724;2023-10-31T04:10:52;5.35;;;4.20;;
19891;SDS011;10108;50.142;8.724;2023-10-31T04:13:18;4.22;;;3.83;;
19891;SDS011;10108;50.142;8.724;2023-10-31T04:15:44;7.53;;;3.90;;
19891;SDS011;10108;50.142;8.724;2023-10-31T04:18:10;5.25;;;3.90;;
19891;SDS011;10108;50.142;8.724;2023-10-31T04:20:36;5.15;;;4.20;;
19891;SDS011;10108;50.142;8.724;2023-10-31T04:23:02;5.00;;;4.25;;
19891;SDS011;10108;50.142;8.724;2023-10-31T04:25:28;4.63;;;4.10;;
19891;SDS011;10108;50.142;8.724;2023-10-31T04:27:55;5.10;;;4.10;;
19891;SDS011;10108;50.142;8.724;2023-10-31T04:30:21;5.25;;;4.13;;
19891;SDS011;10108;50.142;8.724;2023-10-31T04:32:47;4.47;;;3.83;;
19891;SDS011;10108;50.142;8.724;2023-10-31T04:35:13;4.20;;;3.80;;
19891;SDS011;10108;50.142;8.724;2023-10-31T04:37:39;4.45;;;3.90;;
19891;SDS011;10108;50.142;8.724;2023-10-31T04:40:05;4.88;;;4.10;;
19891;SDS011;10108;50.142;8.724;2023-10-31T04:42:32;5.22;;;4.10;;
19891;SDS011;10108;50.142;8.724;2023-10-31T04:45:01;5.18;;;3.97;;
19891;SDS011;10108;50.142;8.724;2023-10-31T04:47:27;5.72;;;4.00;;
19891;SDS011;10108;50.142;8.724;2023-10-31T04:49:53;4.20;;;3.80;;
19891;SDS011;10108;50.142;8.724;2023-10-31T04:52:19;4.70;;;3.70;;
19891;SDS011;10108;50.142;8.724;2023-10-31T04:54:45;6.60;;;4.22;;
19891;SDS011;10108;50.142;8.724;2023-10-31T04:57:11;5.80;;;3.97;;
19891;SDS011;10108;50.142;8.724;2023-10-31T04:59:37;4.93;;;3.90;;
19891;SDS011;10108;50.142;8.724;2023-10-31T05:02:03;5.75;;;3.65;;
19891;SDS011;10108;50.142;8.724;2023-10-31T05:04:29;7.57;;;3.80;;
19891;SDS011;10108;50.142;8.724;2023-10-31T05:06:56;7.75;;;3.92;;
19891;SDS011;10108;50.142;8.724;2023-10-31T05:09:23;6.25;;;4.00;;
19891;SDS011;10108;50.142;8.724;2023-10-31T05:11:49;7.38;;;3.90;;
19891;SDS011;10108;50.142;8.724;2023-10-31T05:14:15;5.03;;;3.90;;
19891;SDS011;10108;50.142;8.724;2023-10-31T05:16:44;5.03;;;3.90;;
19891;SDS011;10108;50.142;8.724;2023-10-31T05:19:10;4.55;;;3.85;;
19891;SDS011;10108;50.142;8.724;2023-10-31T05:21:36;4.15;;;3.70;;
19891;SDS011;10108;50.142;8.724;2023-10-31T05:24:02;5.35;;;3.70;;
19891;SDS011;10108;50.142;8.724;2023-10-31T05:26:29;4.75;;;3.80;;
19891;SDS011;10108;50.142;8.724;2023-10-31T05:28:56;5.68;;;4.00;;
19891;SDS011;10108;50.142;8.724;2023-10-31T05:31:23;4.65;;;3.78;;
19891;SDS011;10108;50.142;8.724;2023-10-31T05:33:50;6.45;;;3.80;;
19891;SDS011;10108;50.142;8.724;2023-10-31T05:36:27;5.03;;;3.72;;
19891;SDS011;10108;50.142;8.724;2023-10-31T05:38:53;4.53;;;3.58;;
19891;SDS011;10108;50.142;8.724;2023-10-31T05:41:19;4.60;;;3.45;;
19891;SDS011;10108;50.142;8.724;2023-10-31T05:43:45;4.85;;;3.75;;
19891;SDS011;10108;50.142;8.724;2023-10-31T05:46:12;5.65;;;3.85;;
19891;SDS011;10108;50.142;8.724;2023-10-31T05:48:41;5.55;;;3.30;;
19891;SDS011;10108;50.142;8.724;2023-10-31T05:51:16;5.60;;;3.25;;
19891;SDS011;10108;50.142;8.724;2023-10-31T05:53:44;4.90;;;3.28;;
19891;SDS011;10108;50.142;8.724;2023-10-31T05:56:12;5.68;;;3.80;;
19891;SDS011;10108;50.142;8.724;2023-10-31T05:58:40;4.68;;;3.30;;
19891;SDS011;10108;50.142;8.724;2023-10-31T06:01:07;4.47;;;3.30;;
19891;SDS011;10108;50.142;8.724;2023-10-31T06:03:33;5.03;;;3.15;;
19891;SDS011;10108;50.142;8.724;2023-10-31T06:05:59;5.65;;;3.40;;
19891;SDS011;10108;50.142;8.724;2023-10-31T06:08:26;6.38;;;3.38;;
19891;SDS011;10108;50.142;8.724;2023-10-31T06:10:55;7.18;;;3.60;;
19891;SDS011;10108;50.142;8.724;2023-10-31T06:13:22;4.35;;;3.22;;
19891;SDS011;10108;50.142;8.724;2023-10-31T06:15:51;5.13;;;3.22;;
19891;SDS011;10108;50.142;8.724;2023-10-31T06:18:17;5.35;;;3.30;;
19891;SDS011;10108;50.142;8.724;2023-10-31T06:20:43;3.90;;;2.80;;
19891;SDS011;10108;50.142;8.724;2023-10-31T06:23:09;5.03;;;2.95;;
19891;SDS011;10108;50.142;8.724;2023-10-31T06:25:35;5.38;;;3.13;;
19891;SDS011;10108;50.142;8.724;2023-10-31T06:28:01;4.43;;;2.95;;
19891;SDS011;10108;50.142;8.724;2023-10-31T06:30:27;4.78;;;2.97;;
19891;SDS011;10108;50.142;8.724;2023-10-31T06:32:53;4.03;;;2.95;;
19891;SDS011;10108;50.142;8.724;2023-10-31T06:35:20;4.18;;;3.20;;
19891;SDS011;10108;50.142;8.724;2023-10-31T06:37:46;5.72;;;2.90;;
19891;SDS011;10108;50.142;8.724;2023-10-31T06:40:12;7.13;;;3.00;;
19891;SDS011;10108;50.142;8.724;2023-10-31T06:42:38;2.97;;;2.60;;
19891;SDS011;10108;50.142;8.724;2023-10-31T06:45:04;4.00;;;2.58;;
19891;SDS011;10108;50.142;8.724;2023-10-31T06:47:30;6.28;;;2.83;;
19891;SDS011;10108;50.142;8.724;2023-10-31T06:49:57;7.20;;;2.80;;
19891;SDS011;10108;50.142;8.724;2023-10-31T06:52:23;4.03;;;2.83;;
19891;SDS011;10108;50.142;8.724;2023-10-31T06:54:49;4.93;;;2.88;;
19891;SDS011;10108;50.142;8.724;2023-10-31T06:57:15;5.10;;;2.85;;
19891;SDS011;10108;50.142;8.724;2023-10-31T06:59:41;7.70;;;3.20;;
19891;SDS011;10108;50.142;8.724;2023-10-31T07:02:08;5.13;;;2.78;;
19891;SDS011;10108;50.142;8.724;2023-10-31T07:04:34;5.32;;;2.80;;
19891;SDS011;10108;50.142;8.724;2023-10-31T07:07:00;4.93;;;2.85;;
19891;SDS011;10108;50.142;8.724;2023-10-31T07:09:26;5.20;;;2.67;;
19891;SDS011;10108;50.142;8.724;2023-10-31T07:11:52;6.45;;;2.65;;
19891;SDS011;10108;50.142;8.724;2023-10-31T07:14:19;4.38;;;2.42;;
19891;SDS011;10108;50.142;8.724;2023-10-31T07:16:45;4.63;;;2.47;;
19891;SDS011;10108;50.142;8.724;2023-10-31T07:19:13;3.88;;;2.50;;
19891;SDS011;10108;50.142;8.724;2023-10-31T07:21:40;3.92;;;2.40;;
19891;SDS011;10108;50.142;8.724;2023-10-31T07:24:06;5.15;;;2.47;;
19891;SDS011;10108;50.142;8.724;2023-10-31T07:26:34;3.10;;;2.40;;
19891;SDS011;10108;50.142;8.724;2023-10-31T07:29:01;10.20;;;3.00;;
19891;SDS011;10108;50.142;8.724;2023-10-31T07:31:27;3.65;;;2.50;;
19891;SDS011;10108;50.142;8.724;2023-10-31T07:33:53;5.25;;;2.28;;
19891;SDS011;10108;50.142;8.724;2023-10-31T07:36:19;7.47;;;2.47;;
19891;SDS011;10108;50.142;8.724;2023-10-31T07:38:45;5.70;;;2.40;;
19891;SDS011;10108;50.142;8.724;2023-10-31T07:41:11;6.07;;;2.25;;
19891;SDS011;10108;50.142;8.724;2023-10-31T07:43:37;2.90;;;2.30;;
19891;SDS011;10108;50.142;8.724;2023-10-31T07:46:03;5.13;;;2.20;;
19891;SDS011;10108;50.142;8.724;2023-10-31T07:48:30;6.53;;;2.38;;
19891;SDS011;10108;50.142;8.724;2023-10-31T07:50:57;4.70;;;2.58;;
19891;SDS011;10108;50.142;8.724;2023-10-31T07:53:23;4.38;;;2.40;;
19891;SDS011;10108;50.142;8.724;2023-10-31T07:55:49;3.92;;;2.50;;
19891;SDS011;10108;50.142;8.724;2023-10-31T07:58:15;4.30;;;2.30;;
19891;SDS011;10108;50.142;8.724;2023-10-31T08:00:42;2.92;;;2.33;;
19891;SDS011;10108;50.142;8.724;2023-10-31T08:03:08;4.63;;;2.55;;
19891;SDS011;10108;50.142;8.724;2023-10-31T08:05:34;3.72;;;2.25;;
19891;SDS011;10108;50.142;8.724;2023-10-31T08:08:00;4.18;;;2.55;;
19891;SDS011;10108;50.142;8.724;2023-10-31T08:10:27;7.38;;;2.50;;
19891;SDS011;10108;50.142;8.724;2023-10-31T08:12:53;4.57;;;2.30;;
19891;SDS011;10108;50.142;8.724;2023-10-31T08:15:19;3.95;;;2.40;;
19891;SDS011;10108;50.142;8.724;2023-10-31T08:17:45;3.70;;;2.17;;
19891;SDS011;10108;50.142;8.724;2023-10-31T08:20:11;3.65;;;2.45;;
19891;SDS011;10108;50.142;8.724;2023-10-31T08:22:38;6.65;;;2.50;;
19891;SDS011;10108;50.142;8.724;2023-10-31T08:25:05;5.45;;;2.35;;
19891;SDS011;10108;50.142;8.724;2023-10-31T08:27:31;4.60;;;2.35;;
19891;SDS011;10108;50.142;8.724;2023-10-31T08:29:57;3.65;;;2.40;;
19891;SDS011;10108;50.142;8.724;2023-10-31T08:32:23;5.10;;;2.60;;
19891;SDS011;10108;50.142;8.724;2023-10-31T08:34:50;6.70;;;2.67;;
19891;SDS011;10108;50.142;8.724;2023-10-31T08:37:16;4.75;;;2.40;;
19891;SDS011;10108;50.142;8.724;2023-10-31T08:39:42;3.83;;;2.53;;
19891;SDS011;10108;50.142;8.724;2023-10-31T08:42:08;3.88;;;2.50;;
19891;SDS011;10108;50.142;8.724;2023-10-31T08:44:35;2.80;;;2.25;;
19891;SDS011;10108;50.142;8.724;2023-10-31T08:47:03;5.03;;;2.20;;
19891;SDS011;10108;50.142;8.724;2023-10-31T08:49:29;7.05;;;2.67;;
19891;SDS011;10108;50.142;8.724;2023-10-31T08:51:55;3.22;;;2.20;;
19891;SDS011;10108;50.142;8.724;2023-10-31T08:54:21;3.90;;;2.30;;
19891;SDS011;10108;50.142;8.724;2023-10-31T08:56:48;5.07;;;2.33;;
19891;SDS011;10108;50.142;8.724;2023-10-31T08:59:14;4.10;;;2.20;;
19891;SDS011;10108;50.142;8.724;2023-10-31T09:01:40;3.63;;;2.20;;
19891;SDS011;10108;50.142;8.724;2023-10-31T09:04:06;5.80;;;2.30;;
19891;SDS011;10108;50.142;8.724;2023-10-31T09:06:32;2.50;;;2.08;;
19891;SDS011;10108;50.142;8.724;2023-10-31T09:08:58;4.28;;;2.30;;
19891;SDS011;10108;50.142;8.724;2023-10-31T09:11:24;5.65;;;2.30;;
19891;SDS011;10108;50.142;8.724;2023-10-31T09:13:50;4.00;;;2.30;;
19891;SDS011;10108;50.142;8.724;2023-10-31T09:16:16;3.50;;;2.05;;
19891;SDS011;10108;50.142;8.724;2023-10-31T09:18:42;4.95;;;2.15;;
19891;SDS011;10108;50.142;8.724;2023-10-31T09:21:09;4.25;;;2.17;;
19891;SDS011;10108;50.142;8.724;2023-10-31T09:23:35;2.58;;;1.77;;
19891;SDS011;10108;50.142;8.724;2023-10-31T09:26:01;2.58;;;2.10;;
19891;SDS011;10108;50.142;8.724;2023-10-31T09:28:28;4.57;;;2.20;;
19891;SDS011;10108;50.142;8.724;2023-10-31T09:30:54;4.43;;;2.10;;
19891;SDS011;10108;50.142;8.724;2023-10-31T09:33:20;3.45;;;2.05;;
19891;SDS011;10108;50.142;8.724;2023-10-31T09:35:46;5.55;;;2.25;;
19891;SDS011;10108;50.142;8.724;2023-10-31T09:38:12;3.90;;;2.00;;
19891;SDS011;10108;50.142;8.724;2023-10-31T09:40:38;6.43;;;2.10;;
19891;SDS011;10108;50.142;8.724;2023-10-31T09:43:04;2.50;;;1.95;;
19891;SDS011;10108;50.142;8.724;2023-10-31T09:45:31;4.45;;;2.83;;
19891;SDS011;10108;50.142;8.724;2023-10-31T09:47:57;2.65;;;1.90;;
19891;SDS011;10108;50.142;8.724;2023-10-31T09:50:26;4.18;;;2.10;;
19891;SDS011;10108;50.142;8.724;2023-10-31T09:52:52;4.80;;;2.28;;
19891;SDS011;10108;50.142;8.724;2023-10-31T09:55:19;4.80;;;2.20;;
19891;SDS011;10108;50.142;8.724;2023-10-31T09:57:45;6.00;;;2.00;;
19891;SDS011;10108;50.142;8.724;2023-10-31T10:00:12;5.30;;;2.00;;
19891;SDS011;10108;50.142;8.724;2023-10-31T10:02:38;3.22;;;2.08;;
19891;SDS011;10108;50.142;8.724;2023-10-31T10:05:04;3.28;;;1.90;;
19891;SDS011;10108;50.142;8.724;2023-10-31T10:07:31;5.80;;;2.15;;
19891;SDS011;10108;50.142;8.724;2023-10-31T10:09:59;3.47;;;2.10;;
19891;SDS011;10108;50.142;8.724;2023-10-31T10:12:26;3.13;;;2.00;;
19891;SDS011;10108;50.142;8.724;2023-10-31T10:14:52;4.18;;;2.10;;
19891;SDS011;10108;50.142;8.724;2023-10-31T10:17:22;3.05;;;1.90;;
19891;SDS011;10108;50.142;8.724;2023-10-31T10:20:08;3.95;;;1.98;;
19891;SDS011;10108;50.142;8.724;2023-10-31T10:22:36;6.88;;;2.13;;
19891;SDS011;10108;50.142;8.724;2023-10-31T10:25:05;3.65;;;2.10;;
19891;SDS011;10108;50.142;8.724;2023-10-31T10:27:32;3.35;;;1.80;;
19891;SDS011;10108;50.142;8.724;2023-10-31T10:29:58;3.17;;;2.03;;
19891;SDS011;10108;50.142;8.724;2023-10-31T10:32:24;3.00;;;1.90;;
19891;SDS011;10108;50.142;8.724;2023-10-31T10:34:50;5.05;;;2.03;;
19891;SDS011;10108;50.142;8.724;2023-10-31T10:37:17;4.05;;;2.17;;
19891;SDS011;10108;50.142;8.724;2023-10-31T10:39:45;4.75;;;2.53;;
19891;SDS011;10108;50.142;8.724;2023-10-31T10:42:16;3.85;;;1.98;;
19891;SDS011;10108;50.142;8.724;2023-10-31T10:44:44;4.63;;;2.00;;
19891;SDS011;10108;50.142;8.724;2023-10-31T10:47:13;3.60;;;2.05;;
19891;SDS011;10108;50.142;8.724;2023-10-31T10:49:41;5.15;;;2.10;;
19891;SDS011;10108;50.142;8.724;2023-10-31T10:52:17;6.75;;;2.25;;
19891;SDS011;10108;50.142;8.724;2023-10-31T10:57:37;3.85;;;2.10;;
19891;SDS011;10108;50.142;8.724;2023-10-31T11:00:23;4.43;;;2.00;;
19891;SDS011;10108;50.142;8.724;2023-10-31T11:02:53;3.38;;;1.88;;
19891;SDS011;10108;50.142;8.724;2023-10-31T11:05:20;7.75;;;2.00;;
19891;SDS011;10108;50.142;8.724;2023-10-31T11:07:46;3.70;;;1.90;;
19891;SDS011;10108;50.142;8.724;2023-10-31T11:10:14;3.92;;;1.95;;
19891;SDS011;10108;50.142;8.724;2023-10-31T11:23:12;4.88;;;1.77;;
19891;SDS011;10108;50.142;8.724;2023-10-31T11:25:42;4.32;;;1.90;;
19891;SDS011;10108;50.142;8.724;2023-10-31T11:28:13;4.00;;;1.90;;
19891;SDS011;10108;50.142;8.724;2023-10-31T11:30:40;3.67;;;1.85;;
19891;SDS011;10108;50.142;8.724;2023-10-31T11:33:10;2.63;;;1.80;;
19891;SDS011;10108;50.142;8.724;2023-10-31T11:35:39;4.32;;;2.00;;
19891;SDS011;10108;50.142;8.724;2023-10-31T11:38:07;3.30;;;1.95;;
19891;SDS011;10108;50.142;8.724;2023-10-31T11:40:37;2.58;;;1.60;;
19891;SDS011;10108;50.142;8.724;2023-10-31T11:43:09;4.85;;;1.90;;
19891;SDS011;10108;50.142;8.724;2023-10-31T11:45:40;4.97;;;1.90;;
19891;SDS011;10108;50.142;8.724;2023-10-31T11:48:07;3.42;;;1.83;;
19891;SDS011;10108;50.142;8.724;2023-10-31T11:50:35;2.15;;;1.70;;
19891;SDS011;10108;50.142;8.724;2023-10-31T11:55:35;3.15;;;1.80;;
19891;SDS011;10108;50.142;8.724;2023-10-31T11:58:16;5.40;;;1.92;;
19891;SDS011;10108;50.142;8.724;2023-10-31T12:00:43;4.35;;;1.80;;
19891;SDS011;10108;50.142;8.724;2023-10-31T12:03:10;5.13;;;1.80;;
19891;SDS011;10108;50.142;8.724;2023-10-31T12:05:37;4.47;;;1.90;;
19891;SDS011;10108;50.142;8.724;2023-10-31T12:08:03;5.65;;;1.70;;
19891;SDS011;10108;50.142;8.724;2023-10-31T12:10:29;4.22;;;1.80;;
19891;SDS011;10108;50.142;8.724;2023-10-31T12:12:57;8.20;;;2.67;;
19891;SDS011;10108;50.142;8.724;2023-10-31T12:15:24;4.68;;;2.00;;
19891;SDS011;10108;50.142;8.724;2023-10-31T12:17:51;3.63;;;1.80;;
19891;SDS011;10108;50.142;8.724;2023-10-31T12:20:17;5.35;;;2.20;;
19891;SDS011;10108;50.142;8.724;2023-10-31T12:22:43;4.53;;;1.88;;
19891;SDS011;10108;50.142;8.724;2023-10-31T12:25:10;4.63;;;1.70;;
19891;SDS011;10108;50.142;8.724;2023-10-31T12:27:46;3.40;;;2.08;;
19891;SDS011;10108;50.142;8.724;2023-10-31T12:30:15;3.60;;;1.83;;
19891;SDS011;10108;50.142;8.724;2023-10-31T12:32:53;4.95;;;1.98;;
19891;SDS011;10108;50.142;8.724;2023-10-31T12:35:21;3.17;;;1.98;;
19891;SDS011;10108;50.142;8.724;2023-10-31T12:37:49;4.45;;;2.17;;
19891;SDS011;10108;50.142;8.724;2023-10-31T12:40:19;4.45;;;1.90;;
19891;SDS011;10108;50.142;8.724;2023-10-31T12:42:47;3.03;;;2.15;;
19891;SDS011;10108;50.142;8.724;2023-10-31T12:45:14;6.03;;;2.20;;
19891;SDS011;10108;50.142;8.724;2023-10-31T12:47:43;4.32;;;2.10;;
19891;SDS011;10108;50.142;8.724;2023-10-31T12:50:11;6.03;;;2.17;;
19891;SDS011;10108;50.142;8.724;2023-10-31T12:52:51;3.55;;;2.00;;
19891;SDS011;10108;50.142;8.724;2023-10-31T12:55:19;4.60;;;1.95;;
19891;SDS011;10108;50.142;8.724;2023-10-31T12:57:46;3.65;;;1.83;;
19891;SDS011;10108;50.142;8.724;2023-10-31T13:00:14;6.90;;;2.20;;
19891;SDS011;10108;50.142;8.724;2023-10-31T13:02:44;6.80;;;2.00;;
19891;SDS011;10108;50.142;8.724;2023-10-31T13:05:11;5.32;;;2.00;;
19891;SDS011;10108;50.142;8.724;2023-10-31T13:07:39;6.90;;;2.55;;
19891;SDS011;10108;50.142;8.724;2023-10-31T13:10:06;6.45;;;2.10;;
19891;SDS011;10108;50.142;8.724;2023-10-31T13:12:36;6.63;;;2.03;;
19891;SDS011;10108;50.142;8.724;2023-10-31T13:15:02;5.35;;;2.10;;
19891;SDS011;10108;50.142;8.724;2023-10-31T13:17:29;7.30;;;2.20;;
19891;SDS011;10108;50.142;8.724;2023-10-31T13:19:56;5.47;;;2.00;;
19891;SDS011;10108;50.142;8.724;2023-10-31T13:22:23;3.67;;;2.05;;
19891;SDS011;10108;50.142;8.724;2023-10-31T13:24:49;7.78;;;2.10;;
19891;SDS011;10108;50.142;8.724;2023-10-31T13:27:15;10.20;;;2.20;;
19891;SDS011;10108;50.142;8.724;2023-10-31T13:29:42;5.75;;;2.03;;
19891;SDS011;10108;50.142;8.724;2023-10-31T13:32:08;7.63;;;2.20;;
19891;SDS011;10108;50.142;8.724;2023-10-31T13:34:34;7.43;;;2.53;;
19891;SDS011;10108;50.142;8.724;2023-10-31T13:37:01;7.03;;;2.50;;
19891;SDS011;10108;50.142;8.724;2023-10-31T13:39:28;10.30;;;2.30;;
19891;SDS011;10108;50.142;8.724;2023-10-31T13:41:54;5.45;;;2.10;;
19891;SDS011;10108;50.142;8.724;2023-10-31T13:44:20;4.43;;;2.10;;
19891;SDS011;10108;50.142;8.724;2023-10-31T13:46:47;9.57;;;2.78;;
19891;SDS011;10108;50.142;8.724;2023-10-31T13:49:13;6.90;;;2.40;;
19891;SDS011;10108;50.142;8.724;2023-10-31T13:51:39;5.60;;;2.08;;
19891;SDS011;10108;50.142;8.724;2023-10-31T13:54:06;4.93;;;2.20;;
19891;SDS011;10108;50.142;8.724;2023-10-31T13:56:32;4.47;;;2.08;;
19891;SDS011;10108;50.142;8.724;2023-10-31T13:58:58;7.70;;;2.08;;
19891;SDS011;10108;50.142;8.724;2023-10-31T14:01:24;5.43;;;2.25;;
19891;SDS011;10108;50.142;8.724;2023-10-31T14:03:54;5.38;;;2.10;;
19891;SDS011;10108;50.142;8.724;2023-10-31T14:06:20;5.88;;;2.30;;
19891;SDS011;10108;50.142;8.724;2023-10-31T14:08:46;4.80;;;2.13;;
19891;SDS011;10108;50.142;8.724;2023-10-31T14:11:13;6.13;;;2.20;;
19891;SDS011;10108;50.142;8.724;2023-10-31T14:13:39;6.47;;;2.20;;
19891;SDS011;10108;50.142;8.724;2023-10-31T14:16:06;5.47;;;2.17;;
19891;SDS011;10108;50.142;8.724;2023-10-31T14:18:32;12.43;;;2.53;;
19891;SDS011;10108;50.142;8.724;2023-10-31T14:20:59;9.40;;;2.40;;
19891;SDS011;10108;50.142;8.724;2023-10-31T14:23:25;6.50;;;2.30;;
19891;SDS011;10108;50.142;8.724;2023-10-31T14:25:51;6.78;;;2.08;;
19891;SDS011;10108;50.142;8.724;2023-10-31T14:28:18;4.93;;;2.08;;
19891;SDS011;10108;50.142;8.724;2023-10-31T14:30:44;7.05;;;2.20;;
19891;SDS011;10108;50.142;8.724;2023-10-31T14:33:10;7.22;;;2.25;;
19891;SDS011;10108;50.142;8.724;2023-10-31T14:35:36;3.97;;;2.03;;
19891;SDS011;10108;50.142;8.724;2023-10-31T14:38:02;4.43;;;2.10;;
19891;SDS011;10108;50.142;8.724;2023-10-31T14:40:28;10.48;;;2.40;;
19891;SDS011;10108;50.142;8.724;2023-10-31T14:42:54;4.13;;;1.83;;
19891;SDS011;10108;50.142;8.724;2023-10-31T14:45:20;5.55;;;1.90;;
19891;SDS011;10108;50.142;8.724;2023-10-31T14:47:47;5.55;;;2.10;;
19891;SDS011;10108;50.142;8.724;2023-10-31T14:50:13;7.20;;;2.00;;
19891;SDS011;10108;50.142;8.724;2023-10-31T14:52:39;7.53;;;2.30;;
19891;SDS011;10108;50.142;8.724;2023-10-31T14:55:06;4.70;;;2.10;;
19891;SDS011;10108;50.142;8.724;2023-10-31T14:57:34;5.93;;;2.33;;
19891;SDS011;10108;50.142;8.724;2023-10-31T15:00:01;6.82;;;2.10;;
19891;SDS011;10108;50.142;8.724;2023-10-31T15:02:27;9.57;;;2.20;;